createdAt,value
2018-12-25T00:02:52.772Z,"    0"
2018-12-25T00:07:48.391Z,"    0"
2018-12-25T00:12:44.831Z,"    0"
2018-12-25T00:17:40.491Z,"    0"
2018-12-25T00:22:36.180Z,"    0"
2018-12-25T00:27:32.006Z,"    0"
2018-12-25T00:32:27.230Z,"    0"
2018-12-25T00:37:23.061Z,"    0"
2018-12-25T00:42:18.963Z,"    0"
2018-12-25T00:47:14.781Z,"    0"
2018-12-25T00:52:10.585Z,"    0"
2018-12-25T00:57:07.323Z,"    0"
2018-12-25T01:02:03.018Z,"    0"
2018-12-25T01:06:59.569Z,"    0"
2018-12-25T01:11:55.195Z,"    0"
2018-12-25T01:16:50.900Z,"    0"
2018-12-25T01:21:47.037Z,"    0"
2018-12-25T01:26:42.949Z,"    0"
2018-12-25T01:31:38.944Z,"    0"
2018-12-25T01:36:34.756Z,"    0"
2018-12-25T01:41:31.252Z,"    0"
2018-12-25T01:46:26.510Z,"    0"
2018-12-25T01:51:22.881Z,"    0"
2018-12-25T01:56:19.743Z,"    0"
2018-12-25T02:06:15.029Z,"    0"
2018-12-25T02:11:10.618Z,"    0"
2018-12-25T02:16:06.650Z,"    0"
2018-12-25T02:21:02.991Z,"    0"
2018-12-25T02:25:58.869Z,"    0"
2018-12-25T02:30:54.491Z,"    0"
2018-12-25T02:35:50.067Z,"    0"
2018-12-25T02:40:45.697Z,"    0"
2018-12-25T02:45:41.452Z,"    0"
2018-12-25T02:50:37.115Z,"    0"
2018-12-25T02:55:32.852Z,"    0"
2018-12-25T03:00:29.698Z,"    0"
2018-12-25T03:05:25.021Z,"    0"
2018-12-25T03:10:21.593Z,"    0"
2018-12-25T03:15:17.336Z,"    0"
2018-12-25T03:20:13.281Z,"    0"
2018-12-25T03:25:09.091Z,"    0"
2018-12-25T03:30:05.713Z,"    0"
2018-12-25T03:35:00.847Z,"    0"
2018-12-25T03:39:56.352Z,"    0"
2018-12-25T03:44:52.141Z,"    0"
2018-12-25T03:49:48.798Z,"    0"
2018-12-25T03:54:44.142Z,"    0"
2018-12-25T03:59:40.468Z,"    0"
2018-12-25T04:04:37.922Z,"    0"
2018-12-25T04:09:33.485Z,"    0"
2018-12-25T04:14:30.386Z,"    0"
2018-12-25T04:19:26.561Z,"    0"
2018-12-25T04:24:22.836Z,"    0"
2018-12-25T04:29:19.294Z,"    0"
2018-12-25T04:34:15.197Z,"    0"
2018-12-25T04:39:11.704Z,"    0"
2018-12-25T04:44:07.197Z,"    0"
2018-12-25T04:49:03.211Z,"    0"
2018-12-25T04:54:00.067Z,"    0"
2018-12-25T04:58:55.512Z,"    0"
2018-12-25T05:03:51.225Z,"    0"
2018-12-25T05:08:47.263Z,"    0"
2018-12-25T05:13:42.776Z,"    0"
2018-12-25T05:18:38.410Z,"    0"
2018-12-25T05:23:34.472Z,"    0"
2018-12-25T05:28:30.896Z,"    0"
2018-12-25T05:33:26.331Z,"    0"
2018-12-25T05:38:21.957Z,"    0"
2018-12-25T05:43:17.570Z,"    0"
2018-12-25T05:48:13.394Z,"    0"
2018-12-25T05:53:09.158Z,"    0"
2018-12-25T05:58:04.764Z,"    0"
2018-12-25T06:03:00.762Z,"    0"
2018-12-25T06:07:57.443Z,"    0"
2018-12-25T06:12:54.003Z,"    0"
2018-12-25T06:17:49.547Z,"    0"
2018-12-25T06:22:45.182Z,"    0"
2018-12-25T06:27:41.369Z,"    0"
2018-12-25T06:32:37.162Z,"    0"
2018-12-25T06:37:33.302Z,"    0"
2018-12-25T06:42:29.168Z,"    0"
2018-12-25T06:47:25.058Z,"    0"
2018-12-25T06:52:20.727Z,"    0"
2018-12-25T06:57:16.261Z,"    0"
2018-12-25T07:02:12.052Z,"    0"
2018-12-25T07:07:07.989Z,"    0"
2018-12-25T07:12:03.933Z,"    4"
2018-12-25T07:16:59.261Z,"    8"
2018-12-25T07:21:54.984Z,"   16"
2018-12-25T07:26:50.836Z,"   28"
2018-12-25T07:31:47.437Z,"   48"
2018-12-25T07:36:44.195Z,"   60"
2018-12-25T07:41:39.455Z,"   88"
2018-12-25T07:46:35.226Z,"  108"
2018-12-25T07:51:31.173Z,"  140"
2018-12-25T07:56:27.519Z,"  164"
2018-12-25T08:01:23.460Z,"  224"
2018-12-25T08:06:20.085Z,"  268"
2018-12-25T08:11:15.696Z,"  308"
2018-12-25T08:16:11.381Z,"  488"
2018-12-25T08:21:07.073Z,"  492"
2018-12-25T08:26:02.947Z,"  556"
2018-12-25T08:30:58.853Z,"  528"
2018-12-25T08:35:54.645Z,"  604"
2018-12-25T08:40:50.660Z,"  836"
2018-12-25T08:45:47.460Z," 1332"
2018-12-25T08:50:43.331Z," 1452"
2018-12-25T08:55:39.140Z," 1908"
2018-12-25T09:00:36.111Z," 2068"
2018-12-25T09:05:31.534Z," 1664"
2018-12-25T09:10:27.304Z," 1924"
2018-12-25T09:15:24.960Z," 2012"
2018-12-25T09:20:20.137Z," 2084"
2018-12-25T09:25:16.419Z," 2056"
2018-12-25T09:30:12.076Z," 2672"
2018-12-25T09:35:07.842Z," 2340"
2018-12-25T09:40:04.548Z," 2536"
2018-12-25T09:45:00.275Z," 3276"
2018-12-25T09:49:56.393Z," 3984"
2018-12-25T09:54:53.361Z," 3420"
2018-12-25T09:59:49.233Z," 2976"
2018-12-25T10:04:45.212Z," 3696"
2018-12-25T10:09:40.928Z," 4100"
2018-12-25T10:14:36.695Z," 3748"
2018-12-25T10:19:32.725Z," 4156"
2018-12-25T10:24:28.461Z," 4540"
2018-12-25T10:29:24.368Z," 3612"
2018-12-25T10:34:20.263Z," 3328"
2018-12-25T10:39:15.950Z," 7284"
2018-12-25T10:44:12.053Z," 3680"
2018-12-25T10:49:07.931Z," 5972"
2018-12-25T10:54:03.706Z," 5028"
2018-12-25T10:58:59.564Z," 3556"
2018-12-25T11:03:56.856Z," 3012"
2018-12-25T11:08:52.358Z," 5468"
2018-12-25T11:13:48.222Z," 4584"
2018-12-25T11:18:49.052Z," 4684"
2018-12-25T11:23:43.215Z," 4308"
2018-12-25T11:28:39.980Z," 5220"
2018-12-25T11:33:35.584Z," 5828"
2018-12-25T11:38:31.340Z," 6164"
2018-12-25T11:43:28.006Z," 5744"
2018-12-25T11:48:24.766Z," 4976"
2018-12-25T11:53:20.555Z," 6044"
2018-12-25T11:58:16.404Z," 4044"
2018-12-25T12:03:12.735Z," 3648"
2018-12-25T12:08:08.448Z," 3008"
2018-12-25T12:13:04.235Z," 4788"
2018-12-25T12:18:00.961Z," 4272"
2018-12-25T12:22:56.443Z," 5412"
2018-12-25T12:27:53.207Z," 5608"
2018-12-25T12:32:49.278Z," 5168"
2018-12-25T12:37:46.057Z," 3896"
2018-12-25T12:42:41.386Z," 3212"
2018-12-25T12:47:38.623Z," 2012"
2018-12-25T12:52:35.025Z," 4340"
2018-12-25T12:57:30.538Z," 3852"
2018-12-25T13:02:26.246Z," 4384"
2018-12-25T13:07:21.944Z," 3480"
2018-12-25T13:12:17.377Z," 3772"
2018-12-25T13:17:13.191Z," 3936"
2018-12-25T13:22:09.862Z," 3720"
2018-12-25T13:27:07.347Z," 2820"
2018-12-25T13:32:03.916Z," 2712"
2018-12-25T13:36:59.231Z," 2676"
2018-12-25T13:41:54.879Z," 3096"
2018-12-25T13:46:51.650Z," 2000"
2018-12-25T13:51:47.266Z," 2224"
2018-12-25T13:56:43.669Z," 1760"
2018-12-25T14:01:39.664Z," 2128"
2018-12-25T14:06:36.286Z," 1840"
2018-12-25T14:11:32.220Z," 1672"
2018-12-25T14:16:27.926Z," 1524"
2018-12-25T14:21:24.585Z," 1300"
2018-12-25T14:26:20.908Z," 1204"
2018-12-25T14:31:16.314Z," 1048"
2018-12-25T14:36:12.044Z," 1092"
2018-12-25T14:41:09.402Z,"  904"
2018-12-25T14:46:04.689Z,"  824"
2018-12-25T14:51:00.393Z,"  688"
2018-12-25T14:55:56.962Z,"  608"
2018-12-25T15:00:53.424Z,"  476"
2018-12-25T15:05:48.690Z,"  412"
2018-12-25T15:10:43.905Z,"  344"
2018-12-25T15:15:40.006Z,"  256"
2018-12-25T15:20:35.835Z,"  176"
2018-12-25T15:25:31.341Z,"  104"
2018-12-25T15:30:26.898Z,"   60"
2018-12-25T15:35:23.519Z,"   28"
2018-12-25T15:40:19.037Z,"   16"
2018-12-25T15:45:14.884Z,"    4"
2018-12-25T15:50:10.780Z,"    4"
2018-12-25T15:55:06.195Z,"    4"
2018-12-25T16:00:02.791Z,"    0"
2018-12-25T16:04:58.074Z,"    0"
2018-12-25T16:09:53.815Z,"    0"
2018-12-25T16:14:49.513Z,"    0"
2018-12-25T16:19:45.552Z,"    0"
2018-12-25T16:24:41.328Z,"    0"
2018-12-25T16:29:36.955Z,"    0"
2018-12-25T16:34:32.695Z,"    0"
2018-12-25T16:39:29.740Z,"    0"
2018-12-25T16:44:26.280Z,"    0"
2018-12-25T16:49:21.663Z,"    0"
2018-12-25T16:54:18.339Z,"    0"
2018-12-25T16:59:13.893Z,"    0"
2018-12-25T17:04:10.441Z,"    0"
2018-12-25T17:09:06.500Z,"    0"
2018-12-25T17:14:03.201Z,"    0"
2018-12-25T17:18:59.745Z,"    0"
2018-12-25T17:24:02.229Z,"    0"
2018-12-25T17:28:55.569Z,"    0"
2018-12-25T17:33:52.036Z,"    0"
2018-12-25T17:38:47.576Z,"    0"
2018-12-25T17:43:43.097Z,"    0"
2018-12-25T17:48:39.964Z,"    0"
2018-12-25T17:53:35.244Z,"    0"
2018-12-25T17:58:30.785Z,"    0"
2018-12-25T18:03:27.860Z,"    0"
2018-12-25T18:08:23.601Z,"    0"
2018-12-25T18:13:20.359Z,"    0"
2018-12-25T18:18:16.718Z,"    0"
2018-12-25T18:23:12.087Z,"    0"
2018-12-25T18:28:07.721Z,"    0"
2018-12-25T18:33:03.587Z,"    0"
2018-12-25T18:37:59.349Z,"    0"
2018-12-25T18:42:55.064Z,"    0"
2018-12-25T18:47:50.639Z,"    0"
2018-12-25T18:52:46.381Z,"    0"
2018-12-25T18:57:42.220Z,"    0"
2018-12-25T19:02:38.641Z,"    0"
2018-12-25T19:07:35.375Z,"    0"
2018-12-25T19:12:30.781Z,"    0"
2018-12-25T19:17:26.645Z,"    0"
2018-12-25T19:22:23.225Z,"    0"
2018-12-25T19:27:18.751Z,"    0"
2018-12-25T19:32:14.371Z,"    0"
2018-12-25T19:37:11.086Z,"    0"
2018-12-25T19:42:07.257Z,"    0"
2018-12-25T19:47:02.800Z,"    0"
2018-12-25T19:51:59.602Z,"    0"
2018-12-25T19:56:55.081Z,"    0"
2018-12-25T20:01:51.737Z,"    0"
2018-12-25T20:06:47.107Z,"    0"
2018-12-25T20:11:42.766Z,"    0"
2018-12-25T20:16:38.451Z,"    0"
2018-12-25T20:21:34.267Z,"    0"
2018-12-25T20:26:31.071Z,"    0"
2018-12-25T20:31:26.316Z,"    0"
2018-12-25T20:36:22.135Z,"    0"
2018-12-25T20:41:17.757Z,"    0"
2018-12-25T20:46:14.574Z,"    0"
2018-12-25T20:51:09.526Z,"    0"
2018-12-25T20:56:06.635Z,"    0"
2018-12-25T21:01:03.059Z,"    0"
2018-12-25T21:05:59.475Z,"    0"
2018-12-25T21:10:55.814Z,"    0"
2018-12-25T21:15:52.056Z,"    0"
2018-12-25T21:20:48.441Z,"    0"
2018-12-25T21:25:44.294Z,"    0"
2018-12-25T21:30:41.638Z,"    0"
2018-12-25T21:35:37.114Z,"    0"
2018-12-25T21:40:32.604Z,"    0"
2018-12-25T21:45:29.274Z,"    0"
2018-12-25T21:50:25.089Z,"    0"
2018-12-25T21:55:21.497Z,"    0"
2018-12-25T22:00:17.293Z,"    0"
2018-12-25T22:05:13.135Z,"    0"
2018-12-25T22:10:09.428Z,"    0"
2018-12-25T22:15:05.761Z,"    0"
2018-12-25T22:20:02.577Z,"    0"
2018-12-25T22:24:59.163Z,"    0"
2018-12-25T22:29:54.313Z,"    0"
2018-12-25T22:34:49.973Z,"    0"
2018-12-25T22:39:45.703Z,"    0"
2018-12-25T22:44:41.431Z,"    0"
2018-12-25T22:49:37.893Z,"    0"
2018-12-25T22:54:33.220Z,"    0"
2018-12-25T22:59:29.773Z,"    0"
2018-12-25T23:04:25.052Z,"    0"
2018-12-25T23:09:21.260Z,"    0"
2018-12-25T23:14:17.935Z,"    0"
2018-12-25T23:19:12.799Z,"    0"
2018-12-25T23:24:09.105Z,"    0"
2018-12-25T23:29:04.787Z,"    0"
2018-12-25T23:34:01.489Z,"    0"
2018-12-25T23:38:57.160Z,"    0"
2018-12-25T23:43:52.666Z,"    0"
2018-12-25T23:48:49.323Z,"    0"
2018-12-25T23:53:44.389Z,"    0"
2018-12-25T23:58:39.798Z,"    0"
